createdAt,value
2023-05-13T00:02:13.680Z,10.54
2023-05-13T00:04:58.710Z,10.51
2023-05-13T00:07:43.615Z,10.53
2023-05-13T00:10:28.658Z,10.45
2023-05-13T00:13:13.683Z,10.41
2023-05-13T00:15:58.829Z,10.42
2023-05-13T00:18:43.829Z,10.34
2023-05-13T00:21:28.842Z,10.38
2023-05-13T00:24:13.795Z,10.34
2023-05-13T00:26:58.791Z,10.37
2023-05-13T00:29:43.851Z,10.31
2023-05-13T00:32:28.743Z,10.30
2023-05-13T00:35:13.814Z,10.33
2023-05-13T00:37:58.754Z,10.31
2023-05-13T00:40:43.754Z,10.31
2023-05-13T00:43:28.632Z,10.34
2023-05-13T00:46:13.611Z,10.33
2023-05-13T00:48:58.644Z,10.29
2023-05-13T00:51:43.551Z,10.28
2023-05-13T00:54:28.546Z,10.26
2023-05-13T00:57:13.502Z,10.29
2023-05-13T00:59:58.740Z,10.25
2023-05-13T01:02:43.777Z,10.23
2023-05-13T01:05:28.948Z,10.25
2023-05-13T01:08:13.981Z,10.21
2023-05-13T01:10:59.036Z,10.16
2023-05-13T01:13:44.253Z,10.16
2023-05-13T01:16:29.236Z,10.15
2023-05-13T01:19:14.338Z,10.11
2023-05-13T01:21:59.259Z,10.08
2023-05-13T01:24:44.349Z,10.04
2023-05-13T01:27:29.154Z,9.99
2023-05-13T01:30:14.325Z,9.92
2023-05-13T01:32:59.320Z,9.84
2023-05-13T01:35:44.170Z,9.79
2023-05-13T01:38:29.288Z,9.78
2023-05-13T01:41:14.259Z,9.78
2023-05-13T01:43:59.344Z,9.86
2023-05-13T01:46:44.421Z,9.91
2023-05-13T01:49:29.449Z,9.83
2023-05-13T01:52:14.475Z,9.77
2023-05-13T01:54:59.488Z,9.83
2023-05-13T01:57:44.674Z,9.90
2023-05-13T02:00:30.234Z,9.94
2023-05-13T02:03:15.569Z,9.95
2023-05-13T02:06:00.320Z,9.97
2023-05-13T02:08:45.139Z,10.01
2023-05-13T02:11:30.130Z,10.01
2023-05-13T02:14:15.061Z,10.04
2023-05-13T02:17:00.147Z,10.01
2023-05-13T02:19:45.071Z,9.97
2023-05-13T02:22:30.117Z,9.99
2023-05-13T02:25:15.120Z,9.93
2023-05-13T02:28:00.224Z,9.93
2023-05-13T02:30:45.254Z,9.93
2023-05-13T02:33:30.325Z,9.88
2023-05-13T02:36:15.198Z,9.83
2023-05-13T02:39:00.178Z,9.81
2023-05-13T02:41:45.211Z,9.83
2023-05-13T02:44:30.239Z,9.80
2023-05-13T02:47:15.319Z,9.79
2023-05-13T02:50:00.279Z,9.80
2023-05-13T02:52:45.366Z,9.75
2023-05-13T02:55:30.437Z,9.74
2023-05-13T02:58:15.440Z,9.65
2023-05-13T03:01:00.365Z,9.67
2023-05-13T03:03:45.314Z,9.65
2023-05-13T03:06:30.416Z,9.60
2023-05-13T03:09:15.406Z,9.59
2023-05-13T03:12:00.443Z,9.55
2023-05-13T03:14:45.470Z,9.54
2023-05-13T03:17:30.705Z,9.55
2023-05-13T03:20:15.507Z,9.55
2023-05-13T03:23:00.599Z,9.42
2023-05-13T03:25:45.642Z,9.39
2023-05-13T03:28:30.629Z,9.35
2023-05-13T03:31:15.765Z,9.30
2023-05-13T03:34:00.684Z,9.30
2023-05-13T03:36:45.844Z,9.36
2023-05-13T03:39:30.759Z,9.43
2023-05-13T03:42:15.971Z,9.42
2023-05-13T03:45:00.940Z,9.46
2023-05-13T03:47:45.918Z,9.53
2023-05-13T03:50:30.960Z,9.52
2023-05-13T03:53:15.893Z,9.52
2023-05-13T03:56:00.972Z,9.56
2023-05-13T03:58:45.990Z,9.65
2023-05-13T04:01:31.248Z,9.74
2023-05-13T04:04:16.105Z,9.82
2023-05-13T04:07:01.160Z,9.85
2023-05-13T04:09:46.227Z,9.91
2023-05-13T04:12:31.054Z,9.90
2023-05-13T04:15:16.260Z,9.91
2023-05-13T04:18:01.234Z,9.88
2023-05-13T04:20:46.314Z,9.91
2023-05-13T04:23:31.395Z,9.85
2023-05-13T04:26:16.401Z,9.80
2023-05-13T04:29:01.322Z,9.78
2023-05-13T04:31:46.337Z,9.79
2023-05-13T04:34:31.332Z,9.87
2023-05-13T04:37:16.292Z,9.93
2023-05-13T04:40:01.445Z,10.01
2023-05-13T04:42:46.433Z,10.09
2023-05-13T04:45:31.461Z,10.08
2023-05-13T04:48:16.399Z,10.16
2023-05-13T04:51:01.502Z,10.14
2023-05-13T04:53:46.916Z,10.11
2023-05-13T04:56:31.937Z,10.04
2023-05-13T04:59:17.039Z,10.04
2023-05-13T05:02:02.152Z,10.10
2023-05-13T05:04:47.179Z,10.18
2023-05-13T05:07:32.153Z,10.25
2023-05-13T05:10:17.269Z,10.34
2023-05-13T05:13:02.262Z,10.43
2023-05-13T05:15:47.351Z,10.51
2023-05-13T05:18:32.393Z,10.61
2023-05-13T05:21:17.358Z,10.71
2023-05-13T05:24:02.613Z,10.74
2023-05-13T05:26:47.416Z,10.79
2023-05-13T05:29:32.430Z,10.83
2023-05-13T05:32:17.211Z,10.84
2023-05-13T05:35:02.364Z,10.86
2023-05-13T05:37:47.350Z,10.90
2023-05-13T05:40:32.172Z,10.94
2023-05-13T05:43:17.754Z,11.01
2023-05-13T05:46:02.768Z,10.99
2023-05-13T05:48:47.840Z,11.07
2023-05-13T05:51:32.795Z,11.18
2023-05-13T05:54:17.951Z,11.28
2023-05-13T05:57:02.940Z,11.26
2023-05-13T05:59:48.059Z,11.34
2023-05-13T06:02:32.990Z,11.51
2023-05-13T06:05:17.775Z,11.66
2023-05-13T06:08:03.046Z,11.81
2023-05-13T06:10:47.947Z,11.95
2023-05-13T06:13:32.949Z,11.92
2023-05-13T06:16:17.943Z,12.05
2023-05-13T06:19:02.894Z,12.20
2023-05-13T06:21:47.752Z,12.37
2023-05-13T06:24:32.612Z,12.54
2023-05-13T06:27:17.594Z,12.73
2023-05-13T06:30:02.480Z,12.96
2023-05-13T06:32:57.737Z,13.09
2023-05-13T06:35:46.185Z,12.97
2023-05-13T06:38:31.166Z,12.97
2023-05-13T06:41:16.061Z,12.72
2023-05-13T06:44:01.216Z,12.41
2023-05-13T06:46:46.218Z,12.41
2023-05-13T06:49:31.180Z,12.29
2023-05-13T06:52:16.119Z,12.29
2023-05-13T06:55:01.080Z,12.23
2023-05-13T06:57:46.227Z,12.22
2023-05-13T07:00:31.124Z,12.22
2023-05-13T07:03:16.259Z,12.33
2023-05-13T07:06:00.992Z,12.42
2023-05-13T07:08:45.960Z,12.42
2023-05-13T07:11:30.960Z,12.24
2023-05-13T07:14:16.036Z,12.14
2023-05-13T07:17:00.940Z,11.95
2023-05-13T07:19:45.912Z,11.99
2023-05-13T07:22:31.094Z,11.90
2023-05-13T07:25:16.027Z,11.95
2023-05-13T07:28:00.996Z,12.13
2023-05-13T07:30:45.944Z,12.38
2023-05-13T07:33:31.043Z,12.68
2023-05-13T07:36:16.092Z,12.86
2023-05-13T07:39:02.071Z,13.31
2023-05-13T07:41:47.165Z,13.65
2023-05-13T07:44:32.058Z,14.01
2023-05-13T07:47:17.284Z,14.25
2023-05-13T07:50:02.149Z,14.37
2023-05-13T07:52:47.233Z,14.00
2023-05-13T07:55:32.270Z,13.78
2023-05-13T07:58:17.229Z,13.91
2023-05-13T08:01:02.225Z,13.91
2023-05-13T08:03:47.331Z,13.88
2023-05-13T08:06:32.771Z,13.68
2023-05-13T08:09:17.644Z,13.83
2023-05-13T08:12:02.722Z,13.97
2023-05-13T08:14:48.962Z,14.11
2023-05-13T08:17:34.066Z,14.22
2023-05-13T08:20:19.238Z,14.53
2023-05-13T08:23:04.153Z,14.64
2023-05-13T08:25:49.079Z,15.01
2023-05-13T08:28:34.023Z,15.08
2023-05-13T08:31:19.248Z,15.06
2023-05-13T08:34:03.982Z,15.05
2023-05-13T08:36:49.114Z,15.39
2023-05-13T08:39:34.164Z,15.86
2023-05-13T08:42:19.188Z,15.92
2023-05-13T08:45:04.142Z,16.07
2023-05-13T08:47:49.005Z,16.47
2023-05-13T08:50:33.972Z,16.65
2023-05-13T08:53:18.934Z,16.50
2023-05-13T08:56:04.086Z,16.54
2023-05-13T08:58:49.011Z,16.51
2023-05-13T09:01:34.145Z,16.48
2023-05-13T09:04:19.235Z,15.92
2023-05-13T09:07:04.237Z,15.40
2023-05-13T09:09:49.419Z,15.31
2023-05-13T09:12:34.285Z,15.25
2023-05-13T09:15:19.716Z,15.33
2023-05-13T09:18:04.612Z,15.32
2023-05-13T09:20:49.590Z,15.33
2023-05-13T09:23:34.600Z,15.55
2023-05-13T09:26:19.551Z,15.25
2023-05-13T09:29:04.518Z,14.94
2023-05-13T09:31:49.489Z,14.77
2023-05-13T09:34:34.612Z,14.51
2023-05-13T09:37:19.514Z,14.48
2023-05-13T09:40:04.448Z,14.44
2023-05-13T09:42:49.335Z,14.62
2023-05-13T09:45:34.511Z,14.76
2023-05-13T09:48:19.455Z,15.03
2023-05-13T09:51:05.511Z,15.34
2023-05-13T09:53:50.631Z,15.27
2023-05-13T09:56:35.539Z,15.47
2023-05-13T09:59:20.526Z,15.70
2023-05-13T10:02:05.502Z,15.68
2023-05-13T10:04:50.486Z,15.77
2023-05-13T10:07:35.487Z,15.72
2023-05-13T10:10:20.714Z,15.62
2023-05-13T10:13:05.957Z,15.82
2023-05-13T10:15:50.856Z,16.00
2023-05-13T10:18:35.908Z,16.17
2023-05-13T10:21:20.645Z,16.33
2023-05-13T10:24:05.556Z,16.40
2023-05-13T10:26:50.513Z,16.61
2023-05-13T10:29:35.383Z,16.68
2023-05-13T10:32:20.424Z,16.78
2023-05-13T10:35:05.332Z,16.76
2023-05-13T10:37:50.470Z,16.75
2023-05-13T10:40:35.345Z,16.83
2023-05-13T10:43:20.474Z,16.91
2023-05-13T10:46:05.434Z,17.01
2023-05-13T10:48:50.334Z,17.25
2023-05-13T10:51:35.424Z,17.40
2023-05-13T10:54:20.165Z,17.55
2023-05-13T10:57:05.160Z,17.67
2023-05-13T10:59:50.116Z,17.76
2023-05-13T11:02:35.255Z,17.69
2023-05-13T11:05:20.218Z,17.15
2023-05-13T11:08:05.120Z,16.94
2023-05-13T11:10:50.166Z,16.84
2023-05-13T11:13:35.197Z,16.95
2023-05-13T11:16:20.331Z,17.04
2023-05-13T11:19:05.224Z,17.10
2023-05-13T11:21:50.229Z,16.99
2023-05-13T11:24:35.219Z,17.03
2023-05-13T11:27:20.443Z,16.99
2023-05-13T11:30:05.444Z,17.25
2023-05-13T11:32:50.489Z,17.23
2023-05-13T11:35:35.518Z,17.34
2023-05-13T11:38:20.432Z,17.51
2023-05-13T11:41:05.420Z,17.30
2023-05-13T11:43:50.503Z,17.22
2023-05-13T11:46:35.491Z,16.78
2023-05-13T11:49:20.393Z,16.81
2023-05-13T11:52:05.576Z,16.84
2023-05-13T11:54:50.497Z,17.07
2023-05-13T11:57:35.456Z,16.99
2023-05-13T12:00:20.410Z,16.90
2023-05-13T12:03:05.438Z,17.05
2023-05-13T12:05:50.368Z,17.00
2023-05-13T12:08:35.340Z,17.12
2023-05-13T12:11:20.490Z,17.27
2023-05-13T12:14:05.385Z,16.95
2023-05-13T12:16:50.441Z,17.07
2023-05-13T12:19:35.405Z,16.91
2023-05-13T12:22:20.489Z,16.55
2023-05-13T12:25:05.496Z,16.38
2023-05-13T12:27:50.353Z,16.47
2023-05-13T12:30:35.403Z,16.58
2023-05-13T12:33:20.353Z,16.84
2023-05-13T12:36:05.258Z,17.06
2023-05-13T12:38:50.214Z,17.36
2023-05-13T12:41:35.368Z,17.39
2023-05-13T12:44:20.193Z,17.47
2023-05-13T12:47:05.365Z,17.58
2023-05-13T12:49:50.395Z,17.66
2023-05-13T12:52:35.345Z,17.70
2023-05-13T12:55:20.513Z,17.82
2023-05-13T12:58:05.631Z,17.83
2023-05-13T13:00:50.481Z,17.86
2023-05-13T13:03:35.511Z,18.05
2023-05-13T13:06:20.407Z,18.18
2023-05-13T13:09:05.386Z,18.20
2023-05-13T13:11:50.424Z,18.15
2023-05-13T13:14:35.625Z,18.10
2023-05-13T13:17:20.467Z,18.11
2023-05-13T13:20:05.428Z,18.22
2023-05-13T13:22:50.237Z,18.26
2023-05-13T13:25:35.227Z,18.30
2023-05-13T13:28:20.223Z,18.27
2023-05-13T13:31:05.356Z,18.26
2023-05-13T13:33:50.340Z,18.28
2023-05-13T13:36:35.240Z,18.23
2023-05-13T13:39:20.261Z,18.25
2023-05-13T13:42:05.198Z,18.24
2023-05-13T13:44:50.297Z,18.16
2023-05-13T13:47:35.159Z,18.02
2023-05-13T13:50:20.129Z,17.78
2023-05-13T13:53:04.888Z,17.61
2023-05-13T13:55:49.821Z,17.52
2023-05-13T13:58:34.875Z,17.35
2023-05-13T14:01:19.880Z,17.15
2023-05-13T14:04:04.914Z,17.13
2023-05-13T14:06:49.696Z,16.94
2023-05-13T14:09:34.706Z,16.76
2023-05-13T14:12:19.548Z,16.67
2023-05-13T14:15:04.402Z,16.47
2023-05-13T14:17:49.402Z,16.29
2023-05-13T14:20:34.265Z,16.28
2023-05-13T14:23:19.050Z,16.23
2023-05-13T14:26:03.959Z,16.15
2023-05-13T14:28:49.252Z,16.15
2023-05-13T14:31:34.286Z,16.18
2023-05-13T14:34:19.711Z,16.26
2023-05-13T14:37:04.723Z,16.31
2023-05-13T14:39:50.362Z,16.29
2023-05-13T14:42:35.529Z,16.39
2023-05-13T14:45:20.010Z,16.40
2023-05-13T14:48:05.167Z,16.48
2023-05-13T14:50:50.031Z,16.55
2023-05-13T14:53:35.081Z,16.65
2023-05-13T14:56:19.914Z,16.82
2023-05-13T14:59:05.026Z,16.89
2023-05-13T15:01:49.911Z,17.04
2023-05-13T15:04:34.911Z,17.14
2023-05-13T15:07:19.812Z,17.20
2023-05-13T15:10:04.609Z,17.24
2023-05-13T15:12:49.637Z,17.31
2023-05-13T15:15:34.538Z,17.20
2023-05-13T15:18:19.492Z,16.98
2023-05-13T15:21:04.314Z,16.87
2023-05-13T15:23:49.274Z,16.84
2023-05-13T15:26:34.234Z,16.82
2023-05-13T15:29:18.932Z,16.48
2023-05-13T15:32:04.073Z,16.08
2023-05-13T15:34:48.894Z,15.76
2023-05-13T15:37:33.935Z,15.41
2023-05-13T15:40:18.841Z,15.20
2023-05-13T15:43:03.891Z,15.17
2023-05-13T15:45:48.766Z,15.13
2023-05-13T15:48:33.909Z,15.10
2023-05-13T15:51:18.724Z,15.19
2023-05-13T15:54:03.815Z,15.42
2023-05-13T15:56:48.810Z,15.47
2023-05-13T15:59:33.766Z,15.67
2023-05-13T16:02:18.847Z,15.79
2023-05-13T16:05:03.843Z,15.79
2023-05-13T16:07:48.904Z,15.69
2023-05-13T16:10:33.762Z,15.51
2023-05-13T16:13:18.883Z,15.38
2023-05-13T16:16:03.812Z,15.26
2023-05-13T16:18:48.948Z,15.22
2023-05-13T16:21:33.809Z,15.04
2023-05-13T16:24:18.819Z,14.81
2023-05-13T16:27:03.936Z,14.63
2023-05-13T16:29:48.806Z,14.51
2023-05-13T16:32:33.944Z,14.46
2023-05-13T16:35:18.786Z,14.44
2023-05-13T16:38:03.868Z,14.60
2023-05-13T16:40:48.933Z,14.74
2023-05-13T16:43:34.004Z,14.92
2023-05-13T16:46:19.056Z,15.06
2023-05-13T16:49:04.194Z,15.21
2023-05-13T16:51:49.194Z,15.22
2023-05-13T16:54:34.376Z,15.04
2023-05-13T16:57:19.219Z,14.87
2023-05-13T17:00:04.141Z,14.73
2023-05-13T17:02:49.280Z,14.64
2023-05-13T17:05:34.177Z,14.47
2023-05-13T17:08:19.172Z,14.24
2023-05-13T17:11:04.309Z,14.15
2023-05-13T17:13:49.239Z,14.08
2023-05-13T17:16:34.375Z,14.09
2023-05-13T17:19:19.302Z,14.04
2023-05-13T17:22:04.415Z,14.00
2023-05-13T17:24:49.345Z,13.97
2023-05-13T17:27:34.145Z,13.99
2023-05-13T17:30:19.093Z,13.97
2023-05-13T17:33:04.078Z,13.88
2023-05-13T17:35:49.212Z,13.89
2023-05-13T17:38:34.149Z,13.87
2023-05-13T17:41:19.326Z,13.80
2023-05-13T17:44:04.153Z,13.60
2023-05-13T17:46:49.234Z,13.66
2023-05-13T17:49:34.350Z,13.70
2023-05-13T17:52:19.174Z,13.78
2023-05-13T17:55:04.058Z,13.84
2023-05-13T17:57:48.998Z,13.88
2023-05-13T18:00:33.986Z,13.93
2023-05-13T18:03:18.853Z,13.94
2023-05-13T18:06:03.859Z,13.93
2023-05-13T18:08:48.684Z,13.89
2023-05-13T18:11:33.755Z,13.87
2023-05-13T18:14:18.724Z,13.88
2023-05-13T18:17:03.665Z,13.85
2023-05-13T18:19:48.726Z,13.83
2023-05-13T18:22:33.616Z,13.84
2023-05-13T18:25:18.629Z,13.78
2023-05-13T18:28:03.582Z,13.72
2023-05-13T18:30:48.718Z,13.56
2023-05-13T18:33:33.577Z,13.28
2023-05-13T18:36:18.674Z,13.08
2023-05-13T18:39:03.625Z,12.90
2023-05-13T18:41:48.595Z,12.82
2023-05-13T18:44:33.621Z,12.86
2023-05-13T18:47:18.515Z,12.85
2023-05-13T18:50:03.526Z,12.79
2023-05-13T18:52:48.547Z,12.65
2023-05-13T18:55:33.690Z,12.53
2023-05-13T18:58:18.761Z,12.60
2023-05-13T19:01:03.744Z,12.64
2023-05-13T19:03:48.785Z,12.69
2023-05-13T19:06:33.585Z,12.66
2023-05-13T19:09:18.579Z,12.56
2023-05-13T19:12:03.586Z,12.44
2023-05-13T19:14:48.512Z,12.25
2023-05-13T19:17:33.529Z,12.22
2023-05-13T19:20:18.583Z,12.23
2023-05-13T19:23:03.508Z,12.25
2023-05-13T19:25:48.445Z,12.29
2023-05-13T19:28:34.119Z,12.33
2023-05-13T19:31:19.079Z,12.36
2023-05-13T19:34:04.027Z,12.40
2023-05-13T19:36:49.132Z,12.42
2023-05-13T19:39:34.136Z,12.44
2023-05-13T19:42:18.986Z,12.45
2023-05-13T19:45:03.969Z,12.48
2023-05-13T19:47:49.077Z,12.46
2023-05-13T19:50:34.027Z,12.46
2023-05-13T19:53:19.111Z,12.48
2023-05-13T19:56:04.051Z,12.47
2023-05-13T19:58:49.189Z,12.47
2023-05-13T20:01:34.107Z,12.45
2023-05-13T20:04:19.017Z,12.44
2023-05-13T20:07:04.016Z,12.43
2023-05-13T20:09:48.967Z,12.42
2023-05-13T20:12:33.940Z,12.37
2023-05-13T20:15:18.869Z,12.28
2023-05-13T20:18:04.073Z,12.13
2023-05-13T20:20:48.887Z,12.04
2023-05-13T20:23:33.900Z,11.93
2023-05-13T20:26:18.929Z,11.87
2023-05-13T20:29:03.855Z,11.78
2023-05-13T20:31:48.992Z,11.66
2023-05-13T20:34:33.721Z,11.62
2023-05-13T20:37:20.050Z,11.55
2023-05-13T20:40:06.089Z,11.46
2023-05-13T20:42:51.125Z,11.47
2023-05-13T20:45:36.152Z,11.52
2023-05-13T20:48:21.139Z,11.60
2023-05-13T20:51:06.185Z,11.63
2023-05-13T20:53:51.216Z,11.63
2023-05-13T20:56:36.446Z,11.64
2023-05-13T20:59:21.364Z,11.58
2023-05-13T21:02:06.441Z,11.49
2023-05-13T21:04:51.424Z,11.41
2023-05-13T21:07:36.408Z,11.47
2023-05-13T21:10:21.883Z,11.51
2023-05-13T21:13:06.751Z,11.51
2023-05-13T21:15:51.732Z,11.58
2023-05-13T21:18:36.536Z,11.59
2023-05-13T21:21:27.699Z,11.47
2023-05-13T21:24:12.834Z,11.39
2023-05-13T21:26:57.712Z,11.28
2023-05-13T21:29:42.892Z,11.22
2023-05-13T21:32:27.865Z,11.14
2023-05-13T21:35:13.000Z,11.15
2023-05-13T21:38:08.716Z,11.15
2023-05-13T21:40:56.680Z,11.20
2023-05-13T21:43:41.797Z,11.21
2023-05-13T21:46:26.649Z,11.27
2023-05-13T21:49:11.850Z,11.33
2023-05-13T21:51:56.818Z,11.35
2023-05-13T21:54:41.805Z,11.30
2023-05-13T21:57:26.762Z,11.16
2023-05-13T22:00:12.014Z,11.13
2023-05-13T22:02:57.207Z,11.04
2023-05-13T22:05:41.965Z,11.03
2023-05-13T22:08:27.032Z,10.94
2023-05-13T22:11:12.023Z,10.93
2023-05-13T22:13:57.138Z,10.83
2023-05-13T22:16:42.157Z,10.62
2023-05-13T22:19:27.143Z,10.54
2023-05-13T22:22:12.214Z,10.49
2023-05-13T22:24:57.267Z,10.50
2023-05-13T22:27:42.356Z,10.43
2023-05-13T22:30:27.373Z,10.49
2023-05-13T22:33:12.641Z,10.58
2023-05-13T22:35:57.403Z,10.60
2023-05-13T22:38:42.581Z,10.66
2023-05-13T22:41:27.436Z,10.74
2023-05-13T22:44:12.478Z,10.80
2023-05-13T22:46:57.392Z,10.87
2023-05-13T22:49:42.290Z,10.95
2023-05-13T22:52:27.289Z,11.03
2023-05-13T22:55:14.198Z,11.06
2023-05-13T22:57:59.331Z,11.13
2023-05-13T23:00:44.270Z,11.10
2023-05-13T23:03:29.327Z,11.09
2023-05-13T23:06:14.410Z,11.03
2023-05-13T23:08:59.345Z,10.94
2023-05-13T23:11:44.276Z,10.94
2023-05-13T23:14:29.304Z,10.94
2023-05-13T23:17:14.346Z,10.96
2023-05-13T23:19:59.239Z,10.97
2023-05-13T23:22:44.020Z,10.88
2023-05-13T23:25:28.939Z,10.75
2023-05-13T23:28:14.001Z,10.62
2023-05-13T23:30:59.177Z,10.55
2023-05-13T23:33:44.169Z,10.51
2023-05-13T23:36:29.399Z,10.45
2023-05-13T23:39:14.411Z,10.40
2023-05-13T23:41:59.663Z,10.39
2023-05-13T23:44:44.735Z,10.37
2023-05-13T23:47:29.871Z,10.35
2023-05-13T23:50:14.659Z,10.44
2023-05-13T23:52:59.581Z,10.47
2023-05-13T23:55:44.818Z,10.45
2023-05-13T23:58:29.750Z,10.49
